createdAt,value
2023-12-23T00:00:22.006Z,0.28
2023-12-23T00:03:11.063Z,0.30
2023-12-23T00:05:58.751Z,0.77
2023-12-23T00:08:46.240Z,0.50
2023-12-23T00:11:33.760Z,0.35
2023-12-23T00:14:21.147Z,0.30
2023-12-23T00:17:08.798Z,0.65
2023-12-23T00:19:58.083Z,1.45
2023-12-23T00:22:46.007Z,0.38
2023-12-23T00:25:33.403Z,0.35
2023-12-23T00:28:20.757Z,0.10
2023-12-23T00:31:08.307Z,0.43
2023-12-23T00:33:56.198Z,0.40
2023-12-23T00:36:45.611Z,0.73
2023-12-23T00:39:32.967Z,1.15
2023-12-23T00:42:20.834Z,0.43
2023-12-23T00:45:09.206Z,0.43
2023-12-23T00:47:56.948Z,0.55
2023-12-23T00:50:44.541Z,0.38
2023-12-23T00:53:33.333Z,0.85
2023-12-23T00:56:21.887Z,0.40
2023-12-23T00:59:09.668Z,0.45
2023-12-23T01:01:57.191Z,0.50
2023-12-23T01:04:44.622Z,0.17
2023-12-23T01:07:32.070Z,0.00
2023-12-23T01:10:23.465Z,0.10
2023-12-23T01:13:10.873Z,0.20
2023-12-23T01:15:58.322Z,0.10
2023-12-23T01:18:46.797Z,0.25
2023-12-23T01:21:34.316Z,0.77
2023-12-23T01:24:21.797Z,0.05
2023-12-23T01:27:11.112Z,0.22
2023-12-23T01:29:59.120Z,0.30
2023-12-23T01:32:46.655Z,0.52
2023-12-23T01:35:34.055Z,0.03
2023-12-23T01:38:21.544Z,0.00
2023-12-23T01:41:09.010Z,0.10
2023-12-23T01:43:57.782Z,0.25
2023-12-23T01:46:45.716Z,0.17
2023-12-23T01:49:33.932Z,0.10
2023-12-23T01:52:21.879Z,0.20
2023-12-23T01:55:11.002Z,0.20
2023-12-23T01:57:58.936Z,0.13
2023-12-23T02:00:48.200Z,0.20
2023-12-23T02:03:36.316Z,0.47
2023-12-23T02:06:24.301Z,0.10
2023-12-23T02:09:12.522Z,0.05
2023-12-23T02:12:14.038Z,0.35
2023-12-23T02:15:06.345Z,0.32
2023-12-23T02:18:02.172Z,0.10
2023-12-23T02:20:51.938Z,0.38
2023-12-23T02:23:40.839Z,0.13
2023-12-23T02:26:31.539Z,0.13
2023-12-23T02:29:20.845Z,0.38
2023-12-23T02:32:10.719Z,0.55
2023-12-23T02:34:58.263Z,0.20
2023-12-23T02:37:47.662Z,0.30
2023-12-23T02:40:35.494Z,0.10
2023-12-23T02:43:23.209Z,0.32
2023-12-23T02:46:10.576Z,0.00
2023-12-23T02:48:58.070Z,0.00
2023-12-23T02:51:46.205Z,0.52
2023-12-23T02:54:35.000Z,0.57
2023-12-23T02:57:22.673Z,0.28
2023-12-23T03:00:11.225Z,0.22
2023-12-23T03:02:59.019Z,0.10
2023-12-23T03:05:46.875Z,0.50
2023-12-23T03:08:34.121Z,0.10
2023-12-23T03:11:22.966Z,0.20
2023-12-23T03:14:10.972Z,0.20
2023-12-23T03:16:58.480Z,0.20
2023-12-23T03:19:46.034Z,0.00
2023-12-23T03:22:33.629Z,0.00
2023-12-23T03:25:21.008Z,0.10
2023-12-23T03:28:09.931Z,0.10
2023-12-23T03:30:57.405Z,0.00
2023-12-23T03:33:46.044Z,0.10
2023-12-23T03:36:33.636Z,0.30
2023-12-23T03:39:21.497Z,0.00
2023-12-23T03:42:09.006Z,0.00
2023-12-23T03:44:58.117Z,0.20
2023-12-23T03:47:45.714Z,0.10
2023-12-23T03:50:33.208Z,0.08
2023-12-23T03:53:20.753Z,0.10
2023-12-23T03:56:08.782Z,0.10
2023-12-23T03:58:56.574Z,0.10
2023-12-23T04:01:46.825Z,0.98
2023-12-23T04:04:35.212Z,0.15
2023-12-23T04:07:23.147Z,0.05
2023-12-23T04:10:11.116Z,0.00
2023-12-23T04:12:59.881Z,0.30
2023-12-23T04:15:48.151Z,0.00
2023-12-23T04:18:37.164Z,0.10
2023-12-23T04:21:25.608Z,0.10
2023-12-23T04:24:13.272Z,0.47
2023-12-23T04:27:01.249Z,0.20
2023-12-23T04:29:48.970Z,0.20
2023-12-23T04:32:36.605Z,0.10
2023-12-23T04:35:25.885Z,0.22
2023-12-23T04:38:14.478Z,0.10
2023-12-23T04:41:02.399Z,0.10
2023-12-23T04:43:50.732Z,0.32
2023-12-23T04:46:38.617Z,0.08
2023-12-23T04:49:26.748Z,0.00
2023-12-23T04:52:15.937Z,0.13
2023-12-23T04:55:06.615Z,0.20
2023-12-23T04:57:54.383Z,0.03
2023-12-23T05:00:42.242Z,0.00
2023-12-23T05:03:32.643Z,0.00
2023-12-23T05:06:20.635Z,0.15
2023-12-23T05:09:09.674Z,0.30
2023-12-23T05:11:57.381Z,0.13
2023-12-23T05:14:46.136Z,0.05
2023-12-23T05:17:34.361Z,0.10
2023-12-23T05:20:22.381Z,0.10
2023-12-23T05:23:10.118Z,0.10
2023-12-23T05:25:59.427Z,0.08
2023-12-23T05:28:47.266Z,0.03
2023-12-23T05:31:35.574Z,0.08
2023-12-23T05:34:23.337Z,0.05
2023-12-23T05:37:11.166Z,0.22
2023-12-23T05:39:58.658Z,0.13
2023-12-23T05:42:47.576Z,0.00
2023-12-23T05:45:35.146Z,0.08
2023-12-23T05:48:22.686Z,0.20
2023-12-23T05:51:10.464Z,0.35
2023-12-23T05:53:57.812Z,0.15
2023-12-23T05:56:45.302Z,0.10
2023-12-23T05:59:34.674Z,0.13
2023-12-23T06:02:22.256Z,0.40
2023-12-23T06:05:10.345Z,0.10
2023-12-23T06:07:58.108Z,0.13
2023-12-23T06:10:51.017Z,0.15
2023-12-23T06:13:45.043Z,0.00
2023-12-23T06:16:33.860Z,0.45
2023-12-23T06:19:22.056Z,0.40
2023-12-23T06:22:10.131Z,0.15
2023-12-23T06:24:57.654Z,0.45
2023-12-23T06:27:44.836Z,0.17
2023-12-23T06:30:32.276Z,0.38
2023-12-23T06:33:21.309Z,0.20
2023-12-23T06:36:10.501Z,0.28
2023-12-23T06:38:58.151Z,0.25
2023-12-23T06:41:48.246Z,0.10
2023-12-23T06:44:36.356Z,0.20
2023-12-23T06:47:23.938Z,0.75
2023-12-23T06:50:13.045Z,0.50
2023-12-23T06:53:00.911Z,0.63
2023-12-23T06:55:48.679Z,0.40
2023-12-23T06:58:36.048Z,1.05
2023-12-23T07:01:23.551Z,0.43
2023-12-23T07:04:11.363Z,0.20
2023-12-23T07:07:00.174Z,0.30
2023-12-23T07:09:55.185Z,0.28
2023-12-23T07:12:49.163Z,0.00
2023-12-23T07:15:36.848Z,0.20
2023-12-23T07:18:24.412Z,0.28
2023-12-23T07:21:12.269Z,0.00
2023-12-23T07:24:01.217Z,0.25
2023-12-23T07:26:48.852Z,0.00
2023-12-23T07:29:40.241Z,0.17
2023-12-23T07:32:28.017Z,0.30
2023-12-23T07:35:16.728Z,0.35
2023-12-23T07:38:06.909Z,0.10
2023-12-23T07:40:55.868Z,0.10
2023-12-23T07:43:43.801Z,0.43
2023-12-23T07:46:31.538Z,0.98
2023-12-23T07:49:19.050Z,0.40
2023-12-23T07:52:08.248Z,0.30
2023-12-23T07:54:55.743Z,0.20
2023-12-23T07:57:44.811Z,0.20
2023-12-23T08:00:32.979Z,0.30
2023-12-23T08:03:20.443Z,1.00
2023-12-23T08:06:08.525Z,0.10
2023-12-23T08:08:56.050Z,0.65
2023-12-23T08:11:43.621Z,0.52
2023-12-23T08:14:32.253Z,0.10
2023-12-23T08:17:20.096Z,0.65
2023-12-23T08:20:08.814Z,0.57
2023-12-23T08:22:56.719Z,0.35
2023-12-23T08:25:44.191Z,0.35
2023-12-23T08:28:31.762Z,0.93
2023-12-23T08:31:20.921Z,1.05
2023-12-23T08:34:09.712Z,0.50
2023-12-23T08:36:57.507Z,0.73
2023-12-23T08:39:44.977Z,0.40
2023-12-23T08:42:32.420Z,0.60
2023-12-23T08:45:20.103Z,0.38
2023-12-23T08:48:09.876Z,0.30
2023-12-23T08:50:57.541Z,0.60
2023-12-23T08:53:45.145Z,0.60
2023-12-23T08:56:32.737Z,0.40
2023-12-23T08:59:20.270Z,0.57
2023-12-23T09:02:08.400Z,0.95
2023-12-23T09:04:57.484Z,1.05
2023-12-23T09:07:45.332Z,0.52
2023-12-23T09:10:32.919Z,0.32
2023-12-23T09:13:20.435Z,0.82
2023-12-23T09:16:08.025Z,0.40
2023-12-23T09:18:55.789Z,0.52
2023-12-23T09:21:44.735Z,0.95
2023-12-23T09:24:32.517Z,0.43
2023-12-23T09:27:20.709Z,0.40
2023-12-23T09:30:09.225Z,1.60
2023-12-23T09:32:57.632Z,0.52
2023-12-23T09:35:45.220Z,0.70
2023-12-23T09:38:34.440Z,1.05
2023-12-23T09:41:23.371Z,0.75
2023-12-23T09:44:11.270Z,0.55
2023-12-23T09:46:58.900Z,1.85
2023-12-23T09:49:46.411Z,0.98
2023-12-23T09:52:34.128Z,0.88
2023-12-23T09:55:24.061Z,1.23
2023-12-23T09:58:11.425Z,0.95
2023-12-23T10:00:59.294Z,0.40
2023-12-23T10:03:48.606Z,1.08
2023-12-23T10:06:36.198Z,0.93
2023-12-23T10:09:24.712Z,1.75
2023-12-23T10:12:13.486Z,1.30
2023-12-23T10:15:01.108Z,0.77
2023-12-23T10:17:48.736Z,0.45
2023-12-23T10:20:36.769Z,1.45
2023-12-23T10:23:24.322Z,1.15
2023-12-23T10:26:11.761Z,0.50
2023-12-23T10:29:04.427Z,1.23
2023-12-23T10:31:57.901Z,0.82
2023-12-23T10:34:46.590Z,1.15
2023-12-23T10:37:35.472Z,0.75
2023-12-23T10:40:29.067Z,1.00
2023-12-23T10:43:18.970Z,0.57
2023-12-23T10:46:10.119Z,0.70
2023-12-23T10:48:58.102Z,0.30
2023-12-23T10:51:47.294Z,0.40
2023-12-23T10:54:37.668Z,0.65
2023-12-23T10:57:26.473Z,0.88
2023-12-23T11:00:15.077Z,1.05
2023-12-23T11:03:05.864Z,0.60
2023-12-23T11:05:55.119Z,0.57
2023-12-23T11:08:43.793Z,0.55
2023-12-23T11:11:32.840Z,0.85
2023-12-23T11:14:21.164Z,1.23
2023-12-23T11:17:25.154Z,0.65
2023-12-23T11:20:46.514Z,0.98
2023-12-23T11:23:35.780Z,0.75
2023-12-23T11:26:43.512Z,0.77
2023-12-23T11:29:31.490Z,0.63
2023-12-23T11:32:20.347Z,0.57
2023-12-23T11:35:10.213Z,0.73
2023-12-23T11:38:00.362Z,0.80
2023-12-23T11:40:49.394Z,0.60
2023-12-23T11:43:38.213Z,0.38
2023-12-23T11:46:27.399Z,0.63
2023-12-23T11:49:15.006Z,0.20
2023-12-23T11:52:02.820Z,0.30
2023-12-23T11:54:53.957Z,0.30
2023-12-23T11:57:41.938Z,0.52
2023-12-23T12:00:31.824Z,0.20
2023-12-23T12:03:19.381Z,1.00
2023-12-23T12:06:07.647Z,0.43
2023-12-23T12:08:56.726Z,0.82
2023-12-23T12:11:45.761Z,0.17
2023-12-23T12:14:33.954Z,0.35
2023-12-23T12:17:21.664Z,0.20
2023-12-23T12:20:10.713Z,0.43
2023-12-23T12:22:58.227Z,0.20
2023-12-23T12:25:50.699Z,0.50
2023-12-23T12:28:40.375Z,0.60
2023-12-23T12:31:27.906Z,0.43
2023-12-23T12:34:15.370Z,0.20
2023-12-23T12:37:03.763Z,0.70
2023-12-23T12:39:51.572Z,0.73
2023-12-23T12:42:39.376Z,0.30
2023-12-23T12:45:28.583Z,0.52
2023-12-23T12:48:17.226Z,0.93
2023-12-23T12:51:07.268Z,0.30
2023-12-23T12:53:54.775Z,0.47
2023-12-23T12:56:42.878Z,0.45
2023-12-23T12:59:30.808Z,0.30
2023-12-23T13:02:20.103Z,0.82
2023-12-23T13:05:08.662Z,0.30
2023-12-23T13:07:56.913Z,0.30
2023-12-23T13:10:47.443Z,0.40
2023-12-23T13:13:36.006Z,0.95
2023-12-23T13:16:23.347Z,0.47
2023-12-23T13:19:12.552Z,0.68
2023-12-23T13:22:00.377Z,0.35
2023-12-23T13:24:47.716Z,0.63
2023-12-23T13:27:35.189Z,1.20
2023-12-23T13:30:22.700Z,0.57
2023-12-23T13:33:10.571Z,0.73
2023-12-23T13:36:00.818Z,0.40
2023-12-23T13:38:48.378Z,0.40
2023-12-23T13:41:36.094Z,0.68
2023-12-23T13:44:23.896Z,1.17
2023-12-23T13:47:11.506Z,1.20
2023-12-23T13:49:59.627Z,0.25
2023-12-23T13:52:49.111Z,0.70
2023-12-23T13:55:36.640Z,0.68
2023-12-23T13:58:24.230Z,0.40
2023-12-23T14:01:12.255Z,0.45
2023-12-23T14:03:59.831Z,0.25
2023-12-23T14:06:47.383Z,0.20
2023-12-23T14:09:36.138Z,0.55
2023-12-23T14:12:24.750Z,0.52
2023-12-23T14:15:12.579Z,1.05
2023-12-23T14:18:00.269Z,0.77
2023-12-23T14:20:47.833Z,0.90
2023-12-23T14:23:36.300Z,0.43
2023-12-23T14:26:25.165Z,0.50
2023-12-23T14:29:12.890Z,0.20
2023-12-23T14:32:00.709Z,0.20
2023-12-23T14:34:48.464Z,0.57
2023-12-23T14:37:42.384Z,0.40
2023-12-23T14:40:36.523Z,1.05
2023-12-23T14:43:25.344Z,0.65
2023-12-23T14:46:13.343Z,0.30
2023-12-23T14:49:00.725Z,0.45
2023-12-23T14:51:48.318Z,0.80
2023-12-23T14:54:36.053Z,0.43
2023-12-23T14:57:23.517Z,0.68
2023-12-23T15:00:13.868Z,0.28
2023-12-23T15:03:02.047Z,0.50
2023-12-23T15:05:49.905Z,0.65
2023-12-23T15:08:37.441Z,0.95
2023-12-23T15:11:25.568Z,0.25
2023-12-23T15:14:13.444Z,0.28
2023-12-23T15:17:02.688Z,1.00
2023-12-23T15:19:50.167Z,0.50
2023-12-23T15:22:37.741Z,0.50
2023-12-23T15:25:25.125Z,0.50
2023-12-23T15:28:12.518Z,0.38
2023-12-23T15:31:00.397Z,0.77
2023-12-23T15:33:49.941Z,0.95
2023-12-23T15:36:37.727Z,0.85
2023-12-23T15:39:25.413Z,2.05
2023-12-23T15:42:13.344Z,1.35
2023-12-23T15:45:01.128Z,1.02
2023-12-23T15:47:48.948Z,0.80
2023-12-23T15:50:38.348Z,1.45
2023-12-23T15:53:25.930Z,1.00
2023-12-23T15:56:14.200Z,1.65
2023-12-23T15:59:01.965Z,1.33
2023-12-23T16:01:49.595Z,0.95
2023-12-23T16:04:37.228Z,1.27
2023-12-23T16:07:26.104Z,1.83
2023-12-23T16:10:13.853Z,1.95
2023-12-23T16:13:01.457Z,2.10
2023-12-23T16:15:48.830Z,1.08
2023-12-23T16:18:36.320Z,1.15
2023-12-23T16:21:23.795Z,1.73
2023-12-23T16:24:14.206Z,1.55
2023-12-23T16:27:01.741Z,1.73
2023-12-23T16:29:49.473Z,1.15
2023-12-23T16:32:36.881Z,1.30
2023-12-23T16:35:24.660Z,1.92
2023-12-23T16:38:12.855Z,1.90
2023-12-23T16:41:01.811Z,0.93
2023-12-23T16:43:50.891Z,1.50
2023-12-23T16:46:39.301Z,1.38
2023-12-23T16:49:40.849Z,2.30
2023-12-23T16:52:29.708Z,2.08
2023-12-23T16:55:17.426Z,3.25
2023-12-23T16:58:06.420Z,2.72
2023-12-23T17:00:54.031Z,1.65
2023-12-23T17:03:41.611Z,1.65
2023-12-23T17:06:29.319Z,2.10
2023-12-23T17:09:16.802Z,2.75
2023-12-23T17:12:05.478Z,2.63
2023-12-23T17:14:55.624Z,2.05
2023-12-23T17:17:43.644Z,2.03
2023-12-23T17:20:31.546Z,1.40
2023-12-23T17:23:20.344Z,2.42
2023-12-23T17:26:08.224Z,1.67
2023-12-23T17:28:55.707Z,2.03
2023-12-23T17:31:44.560Z,1.95
2023-12-23T17:34:32.177Z,2.20
2023-12-23T17:37:19.752Z,3.60
2023-12-23T17:40:08.396Z,1.98
2023-12-23T17:42:55.662Z,1.17
2023-12-23T17:45:43.317Z,2.55
2023-12-23T17:48:32.606Z,1.88
2023-12-23T17:51:20.434Z,2.40
2023-12-23T17:54:07.671Z,1.60
2023-12-23T17:56:55.247Z,2.15
2023-12-23T17:59:42.749Z,2.40
2023-12-23T18:02:30.744Z,2.10
2023-12-23T18:05:20.097Z,1.67
2023-12-23T18:08:08.224Z,2.25
2023-12-23T18:10:55.624Z,2.35
2023-12-23T18:13:43.045Z,1.75
2023-12-23T18:16:30.853Z,2.60
2023-12-23T18:19:18.711Z,1.95
2023-12-23T18:22:07.961Z,2.22
2023-12-23T18:24:55.541Z,1.77
2023-12-23T18:27:43.254Z,1.20
2023-12-23T18:30:30.724Z,1.45
2023-12-23T18:33:18.966Z,1.38
2023-12-23T18:36:07.032Z,1.70
2023-12-23T18:38:56.956Z,1.27
2023-12-23T18:41:44.584Z,1.58
2023-12-23T18:44:32.097Z,1.30
2023-12-23T18:47:19.681Z,1.30
2023-12-23T18:50:08.318Z,1.73
2023-12-23T18:52:56.189Z,1.00
2023-12-23T18:55:44.883Z,1.05
2023-12-23T18:58:32.549Z,1.10
2023-12-23T19:01:20.491Z,1.48
2023-12-23T19:04:08.593Z,1.08
2023-12-23T19:06:56.086Z,1.63
2023-12-23T19:09:43.450Z,1.15
2023-12-23T19:12:32.456Z,0.75
2023-12-23T19:15:19.876Z,1.27
2023-12-23T19:18:07.818Z,0.85
2023-12-23T19:20:55.890Z,1.50
2023-12-23T19:23:43.347Z,1.65
2023-12-23T19:26:31.126Z,1.35
2023-12-23T19:29:20.632Z,1.27
2023-12-23T19:32:08.415Z,1.27
2023-12-23T19:34:56.106Z,1.13
2023-12-23T19:37:43.610Z,1.20
2023-12-23T19:40:31.219Z,2.13
2023-12-23T19:43:19.868Z,1.00
2023-12-23T19:46:08.966Z,0.88
2023-12-23T19:48:57.456Z,1.73
2023-12-23T19:51:44.851Z,1.80
2023-12-23T19:54:32.421Z,1.02
2023-12-23T19:57:20.148Z,1.52
2023-12-23T20:00:10.634Z,0.90
2023-12-23T20:02:59.675Z,1.58
2023-12-23T20:05:47.656Z,2.35
2023-12-23T20:08:35.589Z,1.85
2023-12-23T20:11:26.522Z,1.85
2023-12-23T20:14:16.873Z,2.05
2023-12-23T20:17:04.797Z,2.17
2023-12-23T20:19:53.960Z,2.05
2023-12-23T20:22:41.658Z,1.42
2023-12-23T20:25:30.182Z,1.75
2023-12-23T20:28:18.206Z,1.35
2023-12-23T20:31:06.153Z,1.55
2023-12-23T20:33:53.819Z,1.55
2023-12-23T20:36:44.681Z,2.38
2023-12-23T20:39:33.214Z,1.60
2023-12-23T20:42:24.974Z,1.23
2023-12-23T20:45:12.980Z,1.65
2023-12-23T20:48:01.166Z,1.85
2023-12-23T20:50:49.177Z,2.25
2023-12-23T20:53:37.902Z,1.73
2023-12-23T20:56:26.647Z,2.40
2023-12-23T20:59:14.404Z,2.03
2023-12-23T21:02:02.062Z,2.17
2023-12-23T21:04:49.684Z,2.15
2023-12-23T21:07:37.458Z,2.22
2023-12-23T21:10:26.517Z,2.33
2023-12-23T21:13:14.124Z,1.92
2023-12-23T21:16:01.584Z,2.15
2023-12-23T21:18:49.418Z,2.15
2023-12-23T21:21:39.939Z,1.92
2023-12-23T21:24:27.380Z,2.28
2023-12-23T21:27:16.199Z,1.67
2023-12-23T21:30:03.944Z,2.40
2023-12-23T21:32:52.368Z,2.15
2023-12-23T21:35:40.738Z,2.10
2023-12-23T21:38:28.518Z,1.75
2023-12-23T21:41:16.299Z,2.85
2023-12-23T21:44:05.212Z,1.83
2023-12-23T21:46:56.394Z,1.52
2023-12-23T21:49:44.299Z,2.20
2023-12-23T21:52:31.920Z,1.98
2023-12-23T21:55:19.462Z,1.75
2023-12-23T21:58:06.815Z,1.45
2023-12-23T22:00:55.707Z,1.45
2023-12-23T22:03:43.514Z,2.03
2023-12-23T22:06:31.552Z,0.80
2023-12-23T22:09:19.337Z,1.48
2023-12-23T22:12:07.632Z,1.60
2023-12-23T22:14:56.191Z,1.27
2023-12-23T22:17:45.281Z,1.35
2023-12-23T22:20:33.789Z,1.23
2023-12-23T22:23:21.725Z,1.60
2023-12-23T22:26:13.207Z,1.40
2023-12-23T22:29:01.229Z,0.90
2023-12-23T22:31:48.983Z,1.08
2023-12-23T22:34:37.743Z,0.98
2023-12-23T22:37:25.354Z,1.13
2023-12-23T22:40:13.603Z,1.30
2023-12-23T22:43:01.311Z,1.55
2023-12-23T22:45:49.024Z,1.40
2023-12-23T22:48:36.905Z,1.67
2023-12-23T22:51:26.248Z,1.35
2023-12-23T22:54:14.328Z,1.30
2023-12-23T22:57:01.828Z,1.65
2023-12-23T22:59:51.935Z,1.27
2023-12-23T23:02:41.362Z,1.23
2023-12-23T23:05:29.650Z,1.00
2023-12-23T23:08:19.030Z,1.13
2023-12-23T23:11:06.941Z,1.42
2023-12-23T23:13:54.641Z,0.75
2023-12-23T23:16:42.325Z,1.05
2023-12-23T23:19:29.907Z,0.98
2023-12-23T23:22:17.472Z,1.35
2023-12-23T23:25:07.888Z,0.98
2023-12-23T23:27:55.475Z,1.02
2023-12-23T23:30:43.215Z,1.63
2023-12-23T23:33:30.825Z,1.45
2023-12-23T23:36:20.025Z,0.80
2023-12-23T23:39:08.537Z,0.60
2023-12-23T23:41:57.961Z,1.20
2023-12-23T23:44:45.796Z,0.90
2023-12-23T23:47:33.696Z,0.93
2023-12-23T23:50:22.112Z,0.47
2023-12-23T23:53:09.910Z,0.55
2023-12-23T23:55:57.575Z,0.80
2023-12-23T23:58:46.975Z,0.85
